Time;durP1;ratioP1;P1;durP2;ratioP2;P2;SDS_P1;SDS_P2;PMS_P1;PMS_P2;Temp;Humidity;BMP_temperature;BMP_pressure;BME280_temperature;BME280_humidity;BME280_pressure;Samples;Min_cycle;Max_cycle;Signal;HPM_P1;HPM_P2
2022/07/13 00:01:43;;;;;;;0.75;0.50;;;;;;;24.56;43.86;101599.72;5157087;28;20049;-83
2022/07/13 00:04:13;;;;;;;0.47;0.47;;;;;;;24.53;43.95;101599.97;5173128;28;20608;-82
2022/07/13 00:06:44;;;;;;;0.82;0.82;;;;;;;24.51;43.99;101594.69;5158914;28;20030;-82
2022/07/13 00:09:14;;;;;;;0.30;0.30;;;;;;;24.49;43.99;101601.13;5144687;28;20041;-82
2022/07/13 00:11:45;;;;;;;0.30;0.30;;;;;;;24.49;44.13;101591.28;5173506;28;20045;-82
2022/07/13 00:14:16;;;;;;;0.40;0.40;;;;;;;24.47;44.01;101586.97;5144715;28;20034;-82
2022/07/13 00:16:46;;;;;;;0.28;0.28;;;;;;;24.45;44.09;101584.41;5170186;28;20026;-82
2022/07/13 00:19:18;;;;;;;0.60;0.60;;;;;;;24.43;44.23;101586.34;5180517;28;20168;-82
2022/07/13 00:21:48;;;;;;;0.30;0.30;;;;;;;24.41;44.45;101592.78;5164988;28;20026;-82
2022/07/13 00:24:19;;;;;;;0.22;0.22;;;;;;;24.37;44.44;101586.78;5161043;28;20589;-82
2022/07/13 00:26:49;;;;;;;10.15;2.92;;;;;;;24.37;44.32;101592.16;5164444;28;20100;-82
2022/07/13 00:29:20;;;;;;;0.63;0.40;;;;;;;24.36;44.24;101585.06;5176594;28;20307;-82
2022/07/13 00:31:50;;;;;;;0.32;0.32;;;;;;;24.34;44.30;101589.69;5194857;28;20022;-82
2022/07/13 00:34:21;;;;;;;1.58;1.25;;;;;;;24.34;44.38;101592.38;5156597;28;20053;-82
2022/07/13 00:36:52;;;;;;;0.30;0.30;;;;;;;24.34;44.79;101592.38;5197493;28;20033;-82
2022/07/13 00:39:22;;;;;;;0.30;0.30;;;;;;;24.35;45.50;101588.72;5163103;28;20042;-82
2022/07/13 00:41:52;;;;;;;0.20;0.20;;;;;;;24.32;45.03;101587.13;5185869;28;20026;-82
2022/07/13 00:44:23;;;;;;;0.38;0.38;;;;;;;24.25;45.82;101580.50;5169379;28;20042;-82
2022/07/13 00:46:54;;;;;;;0.57;0.57;;;;;;;24.26;45.82;101579.53;5161835;28;20029;-82
2022/07/13 00:49:25;;;;;;;0.40;0.40;;;;;;;24.25;45.31;101561.72;5136037;28;20034;-82
2022/07/13 00:51:56;;;;;;;0.57;0.57;;;;;;;24.20;45.14;101554.00;5187638;28;20266;-82
2022/07/13 00:54:29;;;;;;;0.43;0.43;;;;;;;24.19;45.45;101543.41;5178262;28;20030;-82
2022/07/13 00:57:01;;;;;;;0.40;0.40;;;;;;;24.18;46.19;101539.84;5170110;28;20107;-82
2022/07/13 00:59:31;;;;;;;1.65;1.00;;;;;;;24.13;45.71;101533.13;5172076;28;20041;-82
2022/07/13 01:02:02;;;;;;;5.25;1.05;;;;;;;24.13;45.69;101536.66;5198012;28;20207;-82
2022/07/13 01:04:33;;;;;;;0.85;0.85;;;;;;;24.14;45.59;101532.13;5186000;28;20045;-82
2022/07/13 01:07:05;;;;;;;0.55;0.55;;;;;;;24.11;46.29;101529.69;5152039;28;20045;-82
2022/07/13 01:09:35;;;;;;;0.20;0.20;;;;;;;24.04;45.61;101537.31;5159035;28;20335;-82
2022/07/13 01:12:06;;;;;;;0.38;0.38;;;;;;;24.04;45.95;101531.94;5151862;28;20057;-82
2022/07/13 01:14:37;;;;;;;1.70;1.60;;;;;;;23.93;46.59;101530.00;5164275;28;20038;-82
2022/07/13 01:17:09;;;;;;;18.60;2.72;;;;;;;23.95;46.03;101530.78;5187176;28;20030;-82
2022/07/13 01:19:40;;;;;;;1.00;0.85;;;;;;;23.88;45.72;101535.69;5176328;28;20267;-82
2022/07/13 01:22:16;;;;;;;0.50;0.50;;;;;;;23.86;45.94;101524.22;5177210;28;20593;-81
2022/07/13 01:24:51;;;;;;;0.77;0.77;;;;;;;23.87;46.26;101528.59;5169188;28;20097;-82
2022/07/13 01:27:22;;;;;;;0.93;0.90;;;;;;;23.85;45.74;101522.50;5158816;28;20044;-83
2022/07/13 01:29:52;;;;;;;0.35;0.35;;;;;;;23.84;45.69;101517.25;5188408;28;20038;-84
2022/07/13 01:32:25;;;;;;;1.75;0.98;;;;;;;23.83;45.83;101511.06;5132389;28;20030;-84
2022/07/13 01:34:56;;;;;;;0.35;0.35;;;;;;;23.73;46.12;101507.31;5178094;28;20030;-83
2022/07/13 01:37:27;;;;;;;0.22;0.22;;;;;;;23.71;46.54;101490.47;5139970;28;20034;-83
2022/07/13 01:40:00;;;;;;;0.47;0.47;;;;;;;23.73;46.17;101491.22;5165509;28;20060;-84
2022/07/13 01:42:31;;;;;;;0.35;0.35;;;;;;;23.77;46.27;101486.50;5158088;28;20030;-83
2022/07/13 01:45:01;;;;;;;1.13;0.60;;;;;;;23.72;45.92;101495.72;5154191;28;20096;-83
2022/07/13 01:47:32;;;;;;;0.32;0.32;;;;;;;23.65;47.03;101498.94;5128372;28;20569;-84
2022/07/13 01:50:02;;;;;;;1.58;0.50;;;;;;;23.64;46.27;101499.91;5167759;28;20069;-84
2022/07/13 01:52:35;;;;;;;1.98;0.90;;;;;;;23.63;46.06;101495.50;5169607;28;20061;-84
2022/07/13 01:55:08;;;;;;;2.10;0.73;;;;;;;23.61;46.23;101502.78;5125723;28;20035;-84
2022/07/13 01:57:39;;;;;;;0.52;0.52;;;;;;;23.54;46.28;101492.50;5160785;28;20535;-83
2022/07/13 02:00:15;;;;;;;0.55;0.30;;;;;;;23.48;46.85;101492.94;5182579;28;20037;-84
2022/07/13 02:02:48;;;;;;;0.25;0.25;;;;;;;23.40;47.13;101497.97;5181916;28;20030;-83
2022/07/13 02:05:25;;;;;;;2.28;1.73;;;;;;;23.46;46.98;101494.88;5145074;28;20337;-83
2022/07/13 02:07:56;;;;;;;0.30;0.30;;;;;;;23.44;46.87;101491.44;5169650;28;20030;-83
2022/07/13 02:10:34;;;;;;;1.08;0.90;;;;;;;23.41;46.35;101484.47;5155413;28;20127;-84
2022/07/13 02:13:08;;;;;;;0.20;0.20;;;;;;;23.48;46.43;101479.56;5180533;28;20068;-84
2022/07/13 02:15:38;;;;;;;0.20;0.20;;;;;;;23.48;46.77;101473.31;5148604;28;20190;-84
2022/07/13 02:18:09;;;;;;;0.30;0.30;;;;;;;23.40;46.64;101479.25;5167146;28;20042;-84
2022/07/13 02:20:40;;;;;;;0.30;0.30;;;;;;;23.43;46.87;101479.00;5163984;28;20494;-83
2022/07/13 02:23:10;;;;;;;0.25;0.25;;;;;;;23.40;47.16;101479.25;5156004;28;20550;-84
2022/07/13 02:25:41;;;;;;;0.30;0.30;;;;;;;23.34;47.07;101479.69;5167606;28;20050;-85
2022/07/13 02:28:11;;;;;;;0.47;0.47;;;;;;;23.39;46.78;101482.88;5156387;28;20046;-84
2022/07/13 02:30:42;;;;;;;0.55;0.55;;;;;;;23.40;46.45;101468.53;5194757;28;20664;-83
2022/07/13 02:33:13;;;;;;;0.40;0.40;;;;;;;23.39;46.14;101461.47;5142281;28;20455;-84
2022/07/13 02:35:43;;;;;;;0.35;0.35;;;;;;;23.39;46.28;101461.47;5140495;28;20041;-83
2022/07/13 02:38:14;;;;;;;0.50;0.50;;;;;;;23.40;46.45;101457.81;5141448;28;20053;-84
2022/07/13 02:40:44;;;;;;;0.35;0.35;;;;;;;23.39;46.45;101458.78;5162005;28;20109;-84
2022/07/13 02:43:15;;;;;;;0.20;0.20;;;;;;;23.38;46.43;101455.25;5179320;28;20042;-84
2022/07/13 02:45:45;;;;;;;8.95;1.50;;;;;;;23.41;46.28;101451.50;5197509;28;20030;-83
2022/07/13 02:48:16;;;;;;;2.38;1.08;;;;;;;23.37;46.30;101452.66;5174125;28;20042;-84
2022/07/13 02:50:46;;;;;;;0.30;0.30;;;;;;;23.37;46.13;101456.22;5176467;28;20101;-85
2022/07/13 02:53:17;;;;;;;0.35;0.35;;;;;;;23.35;47.12;101462.63;5154676;28;20042;-84
2022/07/13 02:55:50;;;;;;;0.32;0.32;;;;;;;23.33;46.49;101456.53;5185321;28;20069;-83
2022/07/13 02:58:21;;;;;;;0.57;0.57;;;;;;;23.35;46.53;101451.91;5169951;28;20038;-83
2022/07/13 03:00:51;;;;;;;0.20;0.20;;;;;;;23.34;46.11;101458.25;5187722;28;20190;-83
2022/07/13 03:03:22;;;;;;;0.20;0.20;;;;;;;23.34;46.53;101452.91;5188147;28;20050;-84
2022/07/13 03:05:52;;;;;;;0.40;0.40;;;;;;;23.34;46.26;101455.56;5192115;28;20052;-84
2022/07/13 03:08:23;;;;;;;0.30;0.30;;;;;;;23.30;46.17;101446.91;5187878;28;20034;-83
2022/07/13 03:10:54;;;;;;;1.13;0.47;;;;;;;23.30;46.50;101456.75;5183784;28;20029;-83
2022/07/13 03:13:24;;;;;;;0.30;0.30;;;;;;;23.30;46.08;101457.63;5170007;28;20121;-84
2022/07/13 03:15:55;;;;;;;0.20;0.20;;;;;;;23.30;46.04;101456.75;5156898;28;20033;-83
2022/07/13 03:18:25;;;;;;;0.45;0.45;;;;;;;23.27;45.81;101458.66;5148796;28;20050;-83
2022/07/13 03:20:56;;;;;;;0.45;0.45;;;;;;;23.26;46.13;101459.63;5169715;28;20100;-83
2022/07/13 03:23:26;;;;;;;0.30;0.30;;;;;;;23.26;46.17;101456.94;5175555;28;20034;-83
2022/07/13 03:25:57;;;;;;;0.30;0.30;;;;;;;23.25;46.19;101449.91;5190974;28;20045;-83
2022/07/13 03:28:27;;;;;;;7.13;1.10;;;;;;;23.25;46.34;101457.94;5168912;28;20038;-84
2022/07/13 03:30:58;;;;;;;0.40;0.40;;;;;;;23.25;46.10;101454.38;5154721;28;20471;-83
2022/07/13 03:33:28;;;;;;;0.50;0.50;;;;;;;23.19;46.26;101446.78;5168942;28;20196;-84
2022/07/13 03:35:59;;;;;;;0.25;0.25;;;;;;;23.23;46.24;101451.81;5200471;28;20620;-83
2022/07/13 03:38:29;;;;;;;0.45;0.43;;;;;;;23.24;46.34;101455.34;5163941;28;20116;-83
2022/07/13 03:41:00;;;;;;;0.30;0.30;;;;;;;23.22;46.38;101455.44;5170729;28;20368;-83
2022/07/13 03:43:33;;;;;;;0.73;0.35;;;;;;;23.15;46.53;101448.78;5145844;28;20103;-83
2022/07/13 03:46:03;;;;;;;1.75;1.30;;;;;;;23.18;46.89;101445.06;5172132;28;20355;-83
2022/07/13 03:48:34;;;;;;;1.13;0.35;;;;;;;23.18;46.56;101445.91;5168185;28;20038;-83
2022/07/13 03:51:07;;;;;;;0.82;0.80;;;;;;;23.18;46.21;101445.91;5164156;28;20319;-84
2022/07/13 03:53:41;;;;;;;0.30;0.30;;;;;;;23.17;46.39;101446.00;5186298;28;20340;-84
2022/07/13 03:56:13;;;;;;;2.55;0.88;;;;;;;23.15;46.75;101446.09;5181508;28;20026;-84
2022/07/13 03:58:44;;;;;;;0.30;0.30;;;;;;;23.17;46.63;101446.88;5148448;28;20054;-84
2022/07/13 04:01:18;;;;;;;0.40;0.40;;;;;;;23.17;46.65;101446.00;5165569;28;20071;-83
2022/07/13 04:03:51;;;;;;;0.40;0.40;;;;;;;23.17;46.51;101448.66;5172162;28;20030;-84
2022/07/13 04:06:21;;;;;;;;;;;;;;;23.15;46.52;101448.78;5201230;28;20567;-83
2022/07/13 04:08:52;;;;;;;0.25;0.25;;;;;;;23.15;46.77;101440.75;5169110;28;19918;-83
2022/07/13 04:11:22;;;;;;;0.40;0.40;;;;;;;23.14;46.57;101447.06;5153170;28;20026;-83
2022/07/13 04:13:53;;;;;;;0.20;0.20;;;;;;;23.11;46.51;101436.56;5188751;28;20050;-84
2022/07/13 04:16:23;;;;;;;0.65;0.47;;;;;;;23.12;46.46;101438.28;5171864;28;20040;-84
2022/07/13 04:18:54;;;;;;;0.35;0.35;;;;;;;23.11;46.61;101436.56;5187231;28;20049;-83
2022/07/13 04:21:25;;;;;;;0.20;0.20;;;;;;;23.10;46.52;101440.19;5190489;28;20034;-84
2022/07/13 04:23:55;;;;;;;0.30;0.30;;;;;;;23.11;46.74;101441.91;5184305;28;20045;-84
2022/07/13 04:26:26;;;;;;;1.02;0.73;;;;;;;23.11;46.56;101431.19;5147770;28;20588;-84
2022/07/13 04:28:56;;;;;;;0.65;0.55;;;;;;;23.11;46.35;101431.19;5201259;28;20038;-84
2022/07/13 04:31:29;;;;;;;2.63;0.63;;;;;;;23.10;46.58;101434.84;5170521;28;20033;-83
2022/07/13 04:33:59;;;;;;;;;;;;;;;23.06;46.68;101446.72;5194875;28;20044;-85
2022/07/13 04:36:30;;;;;;;8.35;1.48;;;;;;;23.07;46.59;101446.63;5177200;28;19977;-84
2022/07/13 04:39:03;;;;;;;0.52;0.35;;;;;;;23.07;46.93;101451.97;5170659;28;20049;-85
2022/07/13 04:41:37;;;;;;;0.30;0.30;;;;;;;23.03;46.52;101442.47;5155050;28;20227;-82
2022/07/13 04:44:08;;;;;;;0.50;0.50;;;;;;;23.07;46.82;101445.78;5163612;28;20069;-82
2022/07/13 04:46:38;;;;;;;0.22;0.22;;;;;;;23.11;46.66;101441.91;5185891;28;20026;-84
2022/07/13 04:49:12;;;;;;;0.50;0.50;;;;;;;23.08;46.86;101442.13;5159619;28;20434;-81
2022/07/13 04:51:43;;;;;;;0.20;0.20;;;;;;;23.10;46.72;101440.19;5175984;28;20033;-80
2022/07/13 04:54:21;;;;;;;0.30;0.30;;;;;;;23.10;46.93;101434.84;5162250;28;20057;-81
2022/07/13 04:56:54;;;;;;;0.15;0.15;;;;;;;23.10;46.90;101424.13;5159970;28;20026;-82
2022/07/13 04:59:25;;;;;;;0.50;0.50;;;;;;;23.10;47.21;101429.50;5138603;28;20160;-82
2022/07/13 05:01:55;;;;;;;0.57;0.45;;;;;;;23.10;46.74;101424.13;5159565;28;20036;-82
2022/07/13 05:04:26;;;;;;;0.35;0.35;;;;;;;23.08;46.67;101416.22;5184709;28;20101;-81
2022/07/13 05:06:56;;;;;;;0.25;0.25;;;;;;;23.09;46.92;101414.41;5188682;28;20214;-82
2022/07/13 05:09:27;;;;;;;0.20;0.20;;;;;;;23.08;47.20;101416.22;5154684;28;20405;-82
2022/07/13 05:11:57;;;;;;;0.20;0.20;;;;;;;23.02;47.64;101415.78;5169170;28;20044;-83
2022/07/13 05:14:28;;;;;;;0.20;0.20;;;;;;;23.01;47.41;101416.78;5157682;28;20042;-83
2022/07/13 05:16:59;;;;;;;0.30;0.30;;;;;;;23.02;47.28;101410.44;5163644;28;20669;-83
2022/07/13 05:19:29;;;;;;;0.47;0.47;;;;;;;22.98;48.11;101411.63;5182102;28;20294;-81
2022/07/13 05:22:00;;;;;;;0.28;0.28;;;;;;;23.03;47.38;101413.03;5160316;28;20064;-81
2022/07/13 05:24:30;;;;;;;0.20;0.20;;;;;;;23.05;47.08;101410.22;5147287;28;20058;-80
2022/07/13 05:27:00;;;;;;;0.10;0.10;;;;;;;23.05;47.11;101412.91;5131321;28;20513;-80
2022/07/13 05:29:31;;;;;;;0.20;0.20;;;;;;;23.06;47.22;101417.28;5152891;28;20042;-82
2022/07/13 05:32:06;;;;;;;0.57;0.57;;;;;;;23.07;47.16;101413.66;5152675;28;20041;-83
2022/07/13 05:34:36;;;;;;;0.30;0.30;;;;;;;23.05;48.08;101418.25;5153192;28;20049;-84
2022/07/13 05:37:09;;;;;;;0.22;0.22;;;;;;;23.09;47.34;101417.09;5151423;28;20044;-84
2022/07/13 05:39:45;;;;;;;1.17;0.63;;;;;;;23.06;48.00;101414.63;5158561;28;20042;-83
2022/07/13 05:42:16;;;;;;;0.25;0.25;;;;;;;23.08;47.62;101416.22;5172337;28;20036;-83
2022/07/13 05:44:47;;;;;;;0.32;0.32;;;;;;;23.15;47.72;101424.69;5127386;28;20406;-84
2022/07/13 05:47:17;;;;;;;31.58;1.75;;;;;;;23.01;48.68;101428.31;5160168;28;20026;-82
2022/07/13 05:49:47;;;;;;;0.20;0.20;;;;;;;23.06;48.13;101425.31;5189044;28;20030;-83
2022/07/13 05:52:18;;;;;;;0.25;0.25;;;;;;;23.15;47.44;101432.72;5137424;28;20484;-83
2022/07/13 05:54:49;;;;;;;0.20;0.20;;;;;;;23.13;47.79;101431.97;5181200;28;20245;-84
2022/07/13 05:57:22;;;;;;;0.57;0.57;;;;;;;23.19;47.94;101434.25;5144374;28;20092;-83
2022/07/13 05:59:54;;;;;;;0.25;0.25;;;;;;;23.20;47.78;101424.41;5145310;28;20153;-85
2022/07/13 06:02:24;;;;;;;0.68;0.68;;;;;;;23.14;48.50;101431.00;5143157;28;20027;-84
2022/07/13 06:04:55;;;;;;;0.20;0.20;;;;;;;23.11;48.70;101423.19;5151561;28;20313;-85
2022/07/13 06:07:26;;;;;;;0.52;0.30;;;;;;;23.10;49.02;101430.38;5177072;28;20260;-84
2022/07/13 06:10:01;;;;;;;0.52;0.52;;;;;;;23.13;48.75;101423.94;5147057;28;20227;-83
2022/07/13 06:12:31;;;;;;;0.75;0.75;;;;;;;23.15;48.56;101427.38;5149647;28;20027;-85
2022/07/13 06:15:03;;;;;;;0.30;0.30;;;;;;;23.15;49.16;101416.66;5140499;28;20038;-85
2022/07/13 06:17:33;;;;;;;0.47;0.47;;;;;;;23.19;48.41;101415.50;5148719;28;20455;-85
2022/07/13 06:20:05;;;;;;;0.52;0.52;;;;;;;23.26;48.34;101413.25;5155078;28;20041;-86
2022/07/13 06:22:36;;;;;;;0.30;0.30;;;;;;;23.19;49.30;101417.34;5151828;28;20557;-83
2022/07/13 06:25:07;;;;;;;0.40;0.25;;;;;;;23.17;49.49;101414.75;5178613;28;20048;-83
2022/07/13 06:27:38;;;;;;;1.20;0.95;;;;;;;23.27;48.57;101423.84;5167177;28;20107;-84
2022/07/13 06:30:09;;;;;;;0.80;0.65;;;;;;;23.36;48.72;101424.19;5181557;28;20369;-86
2022/07/13 06:32:39;;;;;;;0.20;0.20;;;;;;;23.36;49.13;101426.84;5172822;28;20030;-85
2022/07/13 06:35:10;;;;;;;0.47;0.32;;;;;;;23.36;48.75;101429.53;5144732;28;20046;-85
2022/07/13 06:37:41;;;;;;;0.73;0.73;;;;;;;23.38;48.91;101420.44;5148374;28;20513;-85
2022/07/13 06:40:14;;;;;;;0.43;0.43;;;;;;;23.47;48.77;101418.94;5144167;28;20069;-85
2022/07/13 06:42:45;;;;;;;0.40;0.40;;;;;;;23.48;48.87;101417.97;5160779;28;20096;-86
2022/07/13 06:45:15;;;;;;;0.35;0.35;;;;;;;23.48;49.32;101417.97;5135867;28;20042;-83
2022/07/13 06:47:46;;;;;;;0.30;0.30;;;;;;;23.49;49.00;101422.38;5147619;28;20034;-85
2022/07/13 06:50:16;;;;;;;9.45;1.40;;;;;;;23.49;48.74;101422.38;5167786;28;20466;-85
2022/07/13 06:52:47;;;;;;;0.22;0.22;;;;;;;23.56;48.91;101423.63;5174139;28;20045;-86
2022/07/13 06:55:18;;;;;;;0.43;0.43;;;;;;;23.60;49.20;101412.69;5160636;28;20656;-86
2022/07/13 06:57:49;;;;;;;0.30;0.30;;;;;;;23.65;49.65;101416.75;5147758;28;20057;-86
2022/07/13 07:00:20;;;;;;;0.30;0.30;;;;;;;23.66;48.74;101410.44;5163997;28;20136;-83
2022/07/13 07:02:51;;;;;;;1.55;0.77;;;;;;;23.70;49.08;101403.91;5179175;28;20088;-85
2022/07/13 07:05:21;;;;;;;0.30;0.30;;;;;;;23.77;48.84;101412.31;5159684;28;20338;-86
2022/07/13 07:07:52;;;;;;;0.30;0.30;;;;;;;23.85;49.04;101415.31;5169805;28;20034;-86
2022/07/13 07:10:23;;;;;;;0.50;0.50;;;;;;;23.96;48.69;101416.41;5135411;28;20117;-86
2022/07/13 07:12:53;;;;;;;0.30;0.30;;;;;;;23.94;49.00;101418.31;5139206;28;20026;-87
2022/07/13 07:15:24;;;;;;;0.30;0.30;;;;;;;23.98;48.70;101404.59;5150725;28;20264;-85
2022/07/13 07:17:54;;;;;;;0.43;0.43;;;;;;;24.05;48.69;101415.72;5193804;28;20062;-86
2022/07/13 07:20:25;;;;;;;0.30;0.30;;;;;;;24.09;47.24;101411.84;5146487;28;20050;-86
2022/07/13 07:22:56;;;;;;;0.25;0.25;;;;;;;24.12;47.73;101411.63;5152622;28;20104;-84
2022/07/13 07:25:26;;;;;;;0.73;0.73;;;;;;;24.16;46.88;101415.81;5182903;28;20402;-85
2022/07/13 07:27:59;;;;;;;0.20;0.20;;;;;;;24.19;46.69;101406.66;5179624;28;20038;-86
2022/07/13 07:30:30;;;;;;;0.40;0.40;;;;;;;24.20;46.23;101406.53;5144882;28;20116;-87
2022/07/13 07:33:03;;;;;;;0.40;0.40;;;;;;;24.24;45.98;101414.38;5148697;28;20045;-87
2022/07/13 07:35:34;;;;;;;0.65;0.65;;;;;;;24.23;45.85;101421.53;5151561;28;20042;-87
2022/07/13 07:38:05;;;;;;;0.30;0.30;;;;;;;24.24;46.37;101430.47;5158313;28;20048;-87
2022/07/13 07:40:35;;;;;;;0.95;0.85;;;;;;;24.24;47.45;101422.41;5151412;28;20057;-88
2022/07/13 07:43:06;;;;;;;0.40;0.40;;;;;;;24.27;47.85;101430.22;5160377;28;20565;-87
2022/07/13 07:45:37;;;;;;;1.77;1.20;;;;;;;24.31;48.31;101421.81;5156934;28;20184;-88
2022/07/13 07:48:08;;;;;;;0.52;0.52;;;;;;;24.32;48.18;101417.34;5167450;28;20056;-88
2022/07/13 07:50:39;;;;;;;1.55;1.05;;;;;;;24.33;48.01;101405.66;5183134;28;20042;-87
2022/07/13 07:53:09;;;;;;;0.40;0.40;;;;;;;24.35;47.97;101406.38;5174075;28;20076;-87
2022/07/13 07:55:40;;;;;;;0.20;0.20;;;;;;;24.30;47.60;101403.19;5154310;28;20038;-87
2022/07/13 07:58:10;;;;;;;0.52;0.52;;;;;;;24.32;47.35;101407.47;5168830;28;20043;-88
2022/07/13 08:00:42;;;;;;;0.10;0.10;;;;;;;24.31;47.48;101399.53;5161717;28;20438;-87
2022/07/13 08:03:16;;;;;;;0.30;0.30;;;;;;;24.36;47.63;101386.63;5152348;28;20042;-86
2022/07/13 08:05:52;;;;;;;0.20;0.20;;;;;;;24.40;47.62;101385.44;5157226;28;20034;-87
2022/07/13 08:08:23;;;;;;;0.40;0.40;;;;;;;24.44;47.10;101392.25;5158196;28;20042;-88
2022/07/13 08:10:54;;;;;;;0.85;0.77;;;;;;;24.52;46.71;101392.53;5178823;28;20029;-86
2022/07/13 08:13:25;;;;;;;0.30;0.30;;;;;;;24.52;45.78;101389.84;5166073;28;20156;-87
2022/07/13 08:15:56;;;;;;;1.55;0.95;;;;;;;24.59;45.12;101397.44;5142187;28;20117;-86
2022/07/13 08:18:27;;;;;;;0.35;0.35;;;;;;;24.60;44.04;101396.47;5167494;28;20045;-87
2022/07/13 08:21:00;;;;;;;0.20;0.20;;;;;;;24.63;44.89;101398.94;5188684;28;20353;-86
2022/07/13 08:23:52;;;;;;;0.50;0.50;;;;;;;24.64;45.06;101395.28;5156330;28;20058;-88
2022/07/13 08:26:28;;;;;;;0.45;0.45;;;;;;;24.67;44.98;101401.28;5158966;28;20349;-86
2022/07/13 08:28:59;;;;;;;0.52;0.52;;;;;;;24.72;45.01;101392.88;5158632;28;20042;-88
2022/07/13 08:31:30;;;;;;;0.30;0.30;;;;;;;24.80;45.50;101387.78;5138150;28;20282;-87
2022/07/13 08:39:39;;;;;;;0.20;0.20;;;;;;;24.97;43.30;101401.72;5136032;28;20047;-87
2022/07/13 08:42:12;;;;;;;0.20;0.20;;;;;;;25.00;43.37;101396.09;5122108;28;20035;-87
2022/07/13 08:44:43;;;;;;;0.30;0.30;;;;;;;25.11;41.89;101390.75;5141101;28;21375;-87
2022/07/13 08:47:14;;;;;;;2.47;0.68;;;;;;;25.18;42.62;101395.66;5154363;28;20042;-88
2022/07/13 08:49:46;;;;;;;0.30;0.30;;;;;;;25.20;42.60;101393.69;5125578;28;20037;-87
2022/07/13 08:52:17;;;;;;;0.55;0.55;;;;;;;25.25;42.26;101383.44;5153434;28;20023;-87
2022/07/13 08:54:48;;;;;;;0.30;0.30;;;;;;;25.35;41.08;101389.78;5142762;28;20069;-88
2022/07/13 08:57:20;;;;;;;6.25;0.73;;;;;;;25.37;40.43;101382.47;5137662;28;20045;-87
2022/07/13 08:59:53;;;;;;;0.30;0.30;;;;;;;25.42;40.86;101385.66;5137147;28;20419;-87
2022/07/13 09:02:24;;;;;;;0.20;0.20;;;;;;;25.48;41.33;101378.97;5121431;28;20416;-88
2022/07/13 09:08:50;;;;;;;0.20;0.20;;;;;;;25.67;39.83;101381.00;5161233;28;20093;-88
2022/07/13 09:11:23;;;;;;;0.30;0.30;;;;;;;25.70;39.97;101382.63;5162045;28;20152;-87
2022/07/13 09:13:56;;;;;;;0.30;0.30;;;;;;;25.73;39.54;101383.22;5139447;28;20069;-88
2022/07/13 09:16:30;;;;;;;0.40;0.40;;;;;;;25.76;39.09;101382.97;5136510;28;20394;-88
2022/07/13 09:19:02;;;;;;;0.20;0.20;;;;;;;25.83;39.25;101387.81;5122988;28;20038;-87
2022/07/13 09:21:32;;;;;;;0.50;0.50;;;;;;;25.90;39.59;101383.69;5129406;28;20078;-86
2022/07/13 09:24:03;;;;;;;0.30;0.30;;;;;;;26.03;39.88;101392.44;5125000;28;20034;-88
2022/07/13 09:26:41;;;;;;;0.52;0.52;;;;;;;26.06;39.74;101394.00;5136060;28;20121;-87
2022/07/13 09:29:13;;;;;;;0.40;0.40;;;;;;;26.08;39.37;101378.63;5153293;28;20105;-87
2022/07/13 09:31:55;;;;;;;0.47;0.47;;;;;;;26.16;39.25;101394.13;5153914;28;20426;-88
2022/07/13 09:34:53;;;;;;;1.23;1.13;;;;;;;26.20;38.40;101387.53;5140694;28;20042;-87
2022/07/13 09:37:30;;;;;;;0.68;0.68;;;;;;;26.28;38.95;101393.13;5166910;28;20030;-88
2022/07/13 09:40:10;;;;;;;0.30;0.30;;;;;;;26.30;38.96;101391.16;5154771;28;20447;-87
2022/07/13 09:42:42;;;;;;;0.35;0.35;;;;;;;26.37;38.85;101386.97;5140855;28;20038;-88
2022/07/13 09:48:15;;;;;;;0.28;0.28;;;;;;;26.55;40.10;101399.84;5191482;28;20089;-89
2022/07/13 09:50:53;;;;;;;0.20;0.20;;;;;;;26.50;39.29;101392.16;5170659;28;20588;-87
2022/07/13 09:53:28;;;;;;;1.75;0.95;;;;;;;26.58;39.22;101402.25;5142251;28;20117;-88
2022/07/13 09:56:01;;;;;;;0.30;0.30;;;;;;;26.64;39.66;101393.69;5156108;28;20454;-87
2022/07/13 09:58:35;;;;;;;0.50;0.50;;;;;;;26.61;39.87;101401.19;5162594;28;20357;-89
2022/07/13 10:01:06;;;;;;;0.40;0.40;;;;;;;26.59;39.34;101401.28;5140915;28;20112;-87
2022/07/13 10:03:38;;;;;;;0.30;0.30;;;;;;;26.58;38.90;101404.97;5181989;28;20045;-88
2022/07/13 10:06:09;;;;;;;0.20;0.20;;;;;;;26.64;38.91;101404.47;5174277;28;20042;-88
2022/07/13 10:08:45;;;;;;;0.20;0.20;;;;;;;26.66;38.64;101402.47;5157632;28;20677;-88
2022/07/13 10:11:16;;;;;;;0.50;0.50;;;;;;;26.70;38.61;101400.38;5155549;28;20128;-88
2022/07/13 10:13:46;;;;;;;0.40;0.40;;;;;;;26.81;39.30;101403.03;5156353;28;20266;-87
2022/07/13 10:16:17;;;;;;;2.63;0.98;;;;;;;26.89;39.52;101402.41;5139100;28;20026;-88
2022/07/13 10:18:50;;;;;;;0.40;0.40;;;;;;;26.88;39.70;101398.00;5158609;28;20119;-87
2022/07/13 10:21:42;;;;;;;0.65;0.65;;;;;;;26.97;39.26;101401.72;5146026;28;20153;-87
2022/07/13 10:24:14;;;;;;;0.80;0.77;;;;;;;26.96;38.85;101402.69;5151013;28;20081;-88
2022/07/13 10:26:51;;;;;;;0.30;0.30;;;;;;;26.97;39.51;101399.03;5149853;28;20033;-88
2022/07/13 10:29:24;;;;;;;0.40;0.40;;;;;;;27.09;39.52;101405.19;5181610;28;20034;-88
2022/07/13 10:32:01;;;;;;;0.30;0.30;;;;;;;26.95;39.42;101401.00;5190049;28;20077;-87
2022/07/13 10:34:58;;;;;;;0.40;0.40;;;;;;;26.98;39.75;101412.34;5156226;28;20045;-87
2022/07/13 10:37:58;;;;;;;0.57;0.57;;;;;;;27.05;39.80;101406.44;5186354;28;20605;-87
2022/07/13 10:40:36;;;;;;;1.67;1.10;;;;;;;27.10;39.96;101401.50;5155281;28;20043;-88
2022/07/13 10:43:12;;;;;;;0.30;0.30;;;;;;;27.20;39.76;101405.13;5141075;28;20169;-86
2022/07/13 10:45:48;;;;;;;0.20;0.20;;;;;;;27.34;39.27;101406.59;5127446;28;20104;-88
2022/07/13 10:48:22;;;;;;;0.20;0.20;;;;;;;27.32;39.01;101395.94;5142988;28;20041;-87
2022/07/13 10:50:56;;;;;;;0.10;0.10;;;;;;;27.47;39.00;101391.06;5123640;28;20093;-88
2022/07/13 10:53:39;;;;;;;0.20;0.20;;;;;;;27.51;38.91;101397.03;5152596;28;20125;-88
2022/07/13 10:56:20;;;;;;;0.30;0.30;;;;;;;27.59;38.97;101394.53;5174879;28;20034;-88
2022/07/13 10:58:54;;;;;;;0.57;0.57;;;;;;;27.67;38.84;101395.66;5157273;28;20042;-87
2022/07/13 11:01:32;;;;;;;0.75;0.40;;;;;;;27.60;38.43;101390.00;5145080;28;20038;-87
2022/07/13 11:04:05;;;;;;;0.30;0.30;;;;;;;27.65;38.66;101388.56;5159370;28;20242;-88
2022/07/13 11:06:36;;;;;;;;;;;;;;;27.74;39.05;101397.69;5146763;28;20048;-87
2022/07/13 11:09:10;;;;;;;0.20;0.20;;;;;;;27.81;39.07;101397.97;5167701;28;19921;-87
2022/07/13 11:11:48;;;;;;;0.20;0.20;;;;;;;27.89;38.74;101402.69;5173318;28;20030;-88
2022/07/13 11:14:40;;;;;;;0.15;0.15;;;;;;;28.03;38.37;101394.19;5158872;28;20042;-87
2022/07/13 11:17:11;;;;;;;0.93;0.87;;;;;;;27.95;38.51;101394.03;5126393;28;20527;-88
2022/07/13 11:19:57;;;;;;;0.22;0.22;;;;;;;28.04;38.42;101390.50;5141116;28;20674;-88
2022/07/13 11:25:42;;;;;;;0.45;0.30;;;;;;;28.16;38.64;101391.25;5157277;28;20034;-86
2022/07/13 11:28:28;;;;;;;0.87;0.33;;;;;;;28.29;38.89;101379.34;5139773;28;20812;-86
2022/07/13 11:31:03;;;;;;;0.20;0.20;;;;;;;28.34;39.36;101385.16;5142142;28;20100;-86
2022/07/13 11:33:34;;;;;;;0.20;0.20;;;;;;;28.37;38.30;101382.19;5160937;28;20050;-87
2022/07/13 11:36:08;;;;;;;0.70;0.30;;;;;;;28.42;38.31;101388.00;5196907;28;20053;-86
2022/07/13 11:38:38;;;;;;;0.20;0.20;;;;;;;28.56;37.98;101384.84;5166346;28;20084;-85
2022/07/13 11:41:18;;;;;;;0.50;0.40;;;;;;;28.58;38.19;101384.72;5188395;28;20514;-89
2022/07/13 11:43:50;;;;;;;0.40;0.40;;;;;;;28.63;36.77;101376.19;5159850;28;20120;-84
2022/07/13 11:46:26;;;;;;;0.40;0.40;;;;;;;28.68;37.00;101373.91;5149402;28;20031;-84
2022/07/13 11:49:03;;;;;;;0.60;0.60;;;;;;;28.74;37.96;101373.34;5156508;28;20034;-87
2022/07/13 11:51:34;;;;;;;2.30;0.88;;;;;;;28.77;38.20;101366.81;5158188;28;20117;-85
2022/07/13 11:54:09;;;;;;;0.30;0.30;;;;;;;28.77;37.63;101359.56;5152209;28;20153;-86
2022/07/13 11:56:55;;;;;;;0.57;0.57;;;;;;;28.80;36.90;101367.38;5122734;28;20030;-84
2022/07/13 11:59:39;;;;;;;1.23;0.65;;;;;;;28.80;36.45;101358.44;5122958;28;20042;-85
2022/07/13 12:02:15;;;;;;;0.30;0.30;;;;;;;28.80;36.61;101359.25;5140857;28;20041;-85
2022/07/13 12:04:47;;;;;;;4.43;1.05;;;;;;;28.81;36.93;101358.25;5139716;28;20033;-87
2022/07/13 12:07:20;;;;;;;0.38;0.38;;;;;;;28.87;37.30;101363.09;5159821;28;20057;-87